Airways and Terminal Forecast

Significant Meteorological Information
WSPH31 RPLL 101350

RPHI SIGMET B12 VALID 101352/101752 RPLL-
RPHI MANILA FIR EMBD TS OBS WI N1717 E12034 - N1607 E11912 - N1320 E12046 - N1142 E11438 - N1421 E11511 - N1843 E11900 - N1717 E12034 TOP FL530 STNR NC=


WSPH31 RPLL 101311

RPHI SIGMET F11 VALID 101311/101611 RPLL-
RPHI MANILA FIR EMBD TS OBS WI N1701 E13000 - N1727 E12715 - N1821 E12716 -
N2018 E13000 - N1701 E13000 TOP FL530 MOV E 15KT NC=


Terminal Aerodrome Forecast
ISSUED AT NAIA AMSS-WD/PAGASA-DOST FOR 1100UTC 10 JUNE 2018
Prepared By: CHH
Checked By: SSDH
TAF RPLL 101100Z 1012/1118 23010KT 9000 -RA SCT022 OVC090 TX28/1106Z TN25/1021Z TEMPO 1012/1018 22012KT 6000 RA SCT018 OVC080 TEMPO 1019/1024 21007KT 8000 RA SCT020 OVC080=
TAF RPVM 101100Z 1012/1118 22012KT 9999 FEW020 BKN300 TEMPO 1012/1018 20016KT 9000 FEW020 BKN100 TEMPO 1018/1024 21010KT FEW020 BKN100=
TAF RPLC 101100Z 1012/1118 18007KT 8000 -RA SCT018 OVC090 TX28/1106Z TN24/1021Z TEMPO 1012/1018 16008KT 7000 RA SCT018 OVC090=
TAF RPLB 101100Z 1012/1112 20010KT 8000 -RA SCT018 OVC080 TX27/1106Z TN25/1022Z TEMPO 1012/1018 21015G25KT 5000 TSRA FEW016CB BKN018 OVC080=
TAF RPLI 101100Z 1012/1112 22010KT 9999 FEW019 BKN100 TEMPO 1012/1018 18008KT 5000 -TSRA FEW016CB SCT018 OVC090=
TAF RPVP 101100Z 1012/1112 19008KT 9999 FEW019 BKN240 TEMPO 1012/1018 22005KT 9000 -SHRA FEW017CB SCT019 BKN080 OVC230=
TAF RPVD 101100Z 1012/1112 22008KT 9999 FEW015 SCT080 BKN220 TEMPO 1012/1018 18010KT FEW014CB SCT015 BKN080=
TAF RPMR 101100Z 1012/1112 18012KT 9999 FEW018 BKN250 TEMPO 1012/1018 16006KT FEW018CB FEW020 BKN080=
TAF RPMD 101100Z 1012/1112 17007KT 9999 FEW016 BKN290 TEMPO 1012/1018 19005KT FEW015CB SCT016 BKN090=
TAF RPMZ 101100Z 1012/1112 18006KT 9999 FEW017 SCT090 BKN300 TEMPO 1012/1018 17004KT FEW016CB FEW017 BKN090=

RPLL Forecast Take-Off Condition

TIME (UTC) WIND (dddffKT) TEMP (°C) QNH (hPa)
200 22007KT 25.0 1006.5
1600 23008KT 25.0 1007.0
1300 22008KT 25.0 1007.0
1700 22006KT 25.0 1006.0
1400 22010KT 25.0 1007.0
1800 21005KT 25.5 1005.0
1500 23011KT 25.0 1007.0
1900 20003KT 26.0 1005.0